createdAt,value
2019-01-23T00:01:41.342Z,97.57
2019-01-23T00:04:07.341Z,99.93
2019-01-23T00:06:33.385Z,110.93
2019-01-23T00:08:59.259Z,102.03
2019-01-23T00:11:25.092Z,93.67
2019-01-23T00:13:52.142Z,94.50
2019-01-23T00:16:17.969Z,99.00
2019-01-23T00:18:43.820Z,92.23
2019-01-23T00:21:09.945Z,94.90
2019-01-23T00:23:35.798Z,89.17
2019-01-23T00:26:03.526Z,89.13
2019-01-23T00:28:29.388Z,98.10
2019-01-23T00:30:55.215Z,92.30
2019-01-23T00:33:23.074Z,89.13
2019-01-23T00:35:49.032Z,107.93
2019-01-23T00:38:14.868Z,95.63
2019-01-23T00:40:41.009Z,95.50
2019-01-23T00:43:08.086Z,89.13
2019-01-23T00:45:33.920Z,88.23
2019-01-23T00:47:59.809Z,85.20
2019-01-23T00:50:25.667Z,79.73
2019-01-23T00:52:51.498Z,95.50
2019-01-23T00:55:17.632Z,86.47
2019-01-23T00:57:43.493Z,88.40
2019-01-23T01:00:13.121Z,87.07
2019-01-23T01:02:38.974Z,83.90
2019-01-23T01:05:04.831Z,78.83
2019-01-23T01:07:30.661Z,82.67
2019-01-23T01:09:56.501Z,80.17
2019-01-23T01:12:24.632Z,83.50
2019-01-23T01:14:50.495Z,86.70
2019-01-23T01:17:16.429Z,80.33
2019-01-23T01:19:42.286Z,91.27
2019-01-23T01:22:08.115Z,91.07
2019-01-23T01:24:33.946Z,81.77
2019-01-23T01:27:01.406Z,81.17
2019-01-23T01:29:27.249Z,87.10
2019-01-23T01:31:53.102Z,79.60
2019-01-23T01:34:19.039Z,83.80
2019-01-23T01:36:44.893Z,82.47
2019-01-23T01:39:10.730Z,84.53
2019-01-23T01:41:36.570Z,79.37
2019-01-23T01:44:04.318Z,78.80
2019-01-23T01:46:30.142Z,76.10
2019-01-23T01:48:56.031Z,85.80
2019-01-23T01:51:21.873Z,79.67
2019-01-23T01:53:47.714Z,79.93
2019-01-23T01:56:13.574Z,71.93
2019-01-23T01:58:39.445Z,77.53
2019-01-23T02:01:05.245Z,64.93
2019-01-23T02:03:31.350Z,70.33
2019-01-23T02:05:59.804Z,65.23
2019-01-23T02:08:25.640Z,67.90
2019-01-23T02:10:51.536Z,72.00
2019-01-23T02:13:17.376Z,69.90
2019-01-23T02:15:43.208Z,71.23
2019-01-23T02:18:09.068Z,67.40
2019-01-23T02:20:39.745Z,73.40
2019-01-23T02:23:05.799Z,75.80
2019-01-23T02:25:31.639Z,76.23
2019-01-23T02:28:00.396Z,69.60
2019-01-23T02:30:26.269Z,76.47
2019-01-23T02:32:52.249Z,69.07
2019-01-23T02:35:20.512Z,79.40
2019-01-23T02:37:46.363Z,71.10
2019-01-23T02:40:17.513Z,77.30
2019-01-23T02:42:43.594Z,65.07
2019-01-23T02:45:09.549Z,65.97
2019-01-23T02:47:35.414Z,67.40
2019-01-23T02:50:03.347Z,65.90
2019-01-23T02:52:29.211Z,63.50
2019-01-23T02:54:58.113Z,66.50
2019-01-23T02:57:23.981Z,66.03
2019-01-23T02:59:49.814Z,59.73
2019-01-23T03:02:15.643Z,66.53
2019-01-23T03:04:41.503Z,58.20
2019-01-23T03:07:07.359Z,61.50
2019-01-23T03:09:38.412Z,63.43
2019-01-23T03:12:04.270Z,66.57
2019-01-23T03:14:31.606Z,64.77
2019-01-23T03:16:57.443Z,66.90
2019-01-23T03:19:23.575Z,57.87
2019-01-23T03:21:51.309Z,62.33
2019-01-23T03:24:17.427Z,70.20
2019-01-23T03:26:43.280Z,73.33
2019-01-23T03:29:11.023Z,71.53
2019-01-23T03:31:36.854Z,73.20
2019-01-23T03:34:02.733Z,72.63
2019-01-23T03:36:28.569Z,71.77
2019-01-23T03:38:54.396Z,76.20
2019-01-23T03:41:20.278Z,74.77
2019-01-23T03:43:48.285Z,68.47
2019-01-23T03:46:14.114Z,79.73
2019-01-23T03:48:39.955Z,70.93
2019-01-23T03:51:05.810Z,79.00
2019-01-23T03:53:31.640Z,76.20
2019-01-23T03:55:59.395Z,75.63
2019-01-23T03:58:25.234Z,79.33
2019-01-23T04:00:57.414Z,81.43
2019-01-23T04:03:24.480Z,81.67
2019-01-23T04:05:50.329Z,80.67
2019-01-23T04:08:18.066Z,80.90
2019-01-23T04:10:44.020Z,77.70
2019-01-23T04:13:09.822Z,77.97
2019-01-23T04:15:35.646Z,78.83
2019-01-23T04:18:01.488Z,82.47
2019-01-23T04:20:27.298Z,90.03
2019-01-23T04:22:53.390Z,85.17
2019-01-23T04:25:25.043Z,84.63
2019-01-23T04:27:50.861Z,86.50
2019-01-23T04:30:18.983Z,88.00
2019-01-23T04:32:44.810Z,88.40
2019-01-23T04:35:10.614Z,85.67
2019-01-23T04:37:36.411Z,83.77
2019-01-23T04:40:05.450Z,86.20
2019-01-23T04:42:33.235Z,89.40
2019-01-23T04:45:01.277Z,86.87
2019-01-23T04:47:27.114Z,85.50
2019-01-23T04:49:52.917Z,91.97
2019-01-23T04:52:39.045Z,88.03
2019-01-23T04:55:05.651Z,90.33
2019-01-23T04:57:31.457Z,89.97
2019-01-23T04:59:57.316Z,85.57
2019-01-23T05:02:23.228Z,87.70
2019-01-23T05:04:49.040Z,90.07
2019-01-23T05:07:14.876Z,83.53
2019-01-23T05:09:40.698Z,89.43
2019-01-23T05:12:06.502Z,84.43
2019-01-23T05:14:32.454Z,85.87
2019-01-23T05:16:58.255Z,88.13
2019-01-23T05:19:24.100Z,86.80
2019-01-23T05:21:49.910Z,93.33
2019-01-23T05:24:15.714Z,91.23
2019-01-23T05:26:41.824Z,94.60
2019-01-23T05:29:07.679Z,87.77
2019-01-23T05:31:33.484Z,90.77
2019-01-23T05:33:59.491Z,95.83
2019-01-23T05:36:25.319Z,84.57
2019-01-23T05:38:57.921Z,88.53
2019-01-23T05:41:23.975Z,92.93
2019-01-23T05:43:55.155Z,96.63
2019-01-23T05:46:24.013Z,92.97
2019-01-23T05:48:49.814Z,90.67
2019-01-23T05:51:15.668Z,94.00
2019-01-23T05:53:41.634Z,92.97
2019-01-23T05:56:07.468Z,89.67
2019-01-23T05:58:33.271Z,90.23
2019-01-23T06:01:00.991Z,92.80
2019-01-23T06:03:26.820Z,91.57
2019-01-23T06:05:52.635Z,96.53
2019-01-23T06:08:18.556Z,93.10
2019-01-23T06:10:44.382Z,89.57
2019-01-23T06:13:12.664Z,93.43
2019-01-23T06:15:38.463Z,99.03
2019-01-23T06:18:08.976Z,94.83
2019-01-23T06:20:34.818Z,101.33
2019-01-23T06:23:00.693Z,100.73
2019-01-23T06:25:26.516Z,99.00
2019-01-23T06:27:52.350Z,99.53
2019-01-23T06:30:23.966Z,100.60
2019-01-23T06:32:49.799Z,102.60
2019-01-23T06:35:15.627Z,106.00
2019-01-23T06:37:44.073Z,100.30
2019-01-23T06:40:11.819Z,99.00
2019-01-23T06:42:39.560Z,100.97
2019-01-23T06:45:08.763Z,100.07
2019-01-23T06:47:34.607Z,98.20
2019-01-23T06:50:00.671Z,105.47
2019-01-23T06:52:26.453Z,97.80
2019-01-23T06:54:52.336Z,104.57
2019-01-23T06:57:18.145Z,104.10
2019-01-23T06:59:44.038Z,101.70
2019-01-23T07:02:11.769Z,100.10
2019-01-23T07:04:42.479Z,96.57
2019-01-23T07:07:08.299Z,103.90
2019-01-23T07:09:34.286Z,103.83
2019-01-23T07:12:00.085Z,106.80
2019-01-23T07:14:25.915Z,108.83
2019-01-23T07:16:55.849Z,102.43
2019-01-23T07:19:21.692Z,108.40
2019-01-23T07:21:49.424Z,107.47
2019-01-23T07:24:17.126Z,105.67
2019-01-23T07:26:42.939Z,107.30
2019-01-23T07:29:08.770Z,102.73
2019-01-23T07:31:34.587Z,106.10
2019-01-23T07:34:00.659Z,102.57
2019-01-23T07:36:26.503Z,109.70
2019-01-23T07:38:52.405Z,108.17
2019-01-23T07:41:18.259Z,115.27
2019-01-23T07:43:44.452Z,103.13
2019-01-23T07:46:13.020Z,109.90
2019-01-23T07:48:38.827Z,114.20
2019-01-23T07:51:04.645Z,113.63
2019-01-23T07:53:40.826Z,104.53
2019-01-23T07:56:06.643Z,110.47
2019-01-23T07:58:32.463Z,116.70
2019-01-23T08:00:58.302Z,111.13
2019-01-23T08:03:26.516Z,105.80
2019-01-23T08:05:52.383Z,118.97
2019-01-23T08:08:18.226Z,114.13
2019-01-23T08:10:44.034Z,111.33
2019-01-23T08:13:12.086Z,126.43
2019-01-23T08:15:39.596Z,116.33
2019-01-23T08:18:08.016Z,109.30
2019-01-23T08:20:33.851Z,110.43
2019-01-23T08:22:59.984Z,112.53
2019-01-23T08:25:25.810Z,111.57
2019-01-23T08:27:51.626Z,114.90
2019-01-23T08:30:19.346Z,111.57
2019-01-23T08:32:45.176Z,111.00
2019-01-23T08:35:14.584Z,109.40
2019-01-23T08:37:40.393Z,108.10
2019-01-23T08:40:09.613Z,106.37
2019-01-23T08:42:36.620Z,113.30
2019-01-23T08:45:05.339Z,107.97
2019-01-23T08:47:31.147Z,112.97
2019-01-23T08:49:57.002Z,108.27
2019-01-23T08:52:22.835Z,108.83
2019-01-23T08:54:48.642Z,112.93
2019-01-23T08:57:16.459Z,113.47
2019-01-23T08:59:42.357Z,118.63
2019-01-23T09:02:09.167Z,112.87
2019-01-23T09:04:34.994Z,108.47
2019-01-23T09:07:00.793Z,108.40
2019-01-23T09:09:26.600Z,103.67
2019-01-23T09:11:52.431Z,108.10
2019-01-23T09:14:18.452Z,109.90
2019-01-23T09:16:44.271Z,109.73
2019-01-23T09:19:10.092Z,103.93
2019-01-23T09:21:35.939Z,108.23
2019-01-23T09:24:01.831Z,107.73
2019-01-23T09:26:27.670Z,107.20
2019-01-23T09:28:56.665Z,120.60
2019-01-23T09:31:53.186Z,112.83
2019-01-23T09:34:29.264Z,106.07
2019-01-23T09:37:01.693Z,100.80
2019-01-23T09:39:37.350Z,102.93
2019-01-23T09:42:16.243Z,98.83
2019-01-23T09:45:06.097Z,103.13
2019-01-23T09:47:44.992Z,98.33
2019-01-23T09:50:32.475Z,95.93
2019-01-23T09:53:03.659Z,102.00
2019-01-23T09:55:29.628Z,96.27
2019-01-23T09:57:55.434Z,91.40
2019-01-23T10:00:27.768Z,91.37
2019-01-23T10:02:55.729Z,93.73
2019-01-23T10:05:24.322Z,90.47
2019-01-23T10:07:52.182Z,83.70
2019-01-23T10:10:19.989Z,90.03
2019-01-23T10:12:46.101Z,83.87
2019-01-23T10:15:18.033Z,88.47
2019-01-23T10:17:43.834Z,86.73
2019-01-23T10:20:09.652Z,93.10
2019-01-23T10:22:35.634Z,80.87
2019-01-23T10:25:01.444Z,82.07
2019-01-23T10:27:27.254Z,80.90
2019-01-23T10:29:53.090Z,75.47
2019-01-23T10:32:18.916Z,84.03
2019-01-23T10:34:44.715Z,77.80
2019-01-23T10:37:10.549Z,68.13
2019-01-23T10:39:36.357Z,66.13
2019-01-23T10:42:02.278Z,67.93
2019-01-23T10:44:28.325Z,62.07
2019-01-23T10:46:54.183Z,65.93
2019-01-23T10:49:20.026Z,66.07
2019-01-23T10:51:45.857Z,64.03
2019-01-23T10:54:11.673Z,67.63
2019-01-23T10:56:37.483Z,71.53
2019-01-23T10:59:09.338Z,66.50
2019-01-23T11:01:35.168Z,68.77
2019-01-23T11:04:01.005Z,70.50
2019-01-23T11:06:26.842Z,74.03
2019-01-23T11:08:52.654Z,66.10
2019-01-23T11:11:18.458Z,70.93
2019-01-23T11:13:44.608Z,73.80
2019-01-23T11:16:10.412Z,65.67
2019-01-23T11:18:36.237Z,67.73
2019-01-23T11:21:02.057Z,67.47
2019-01-23T11:23:27.864Z,69.20
2019-01-23T11:25:53.692Z,71.77
2019-01-23T11:28:19.503Z,70.93
2019-01-23T11:30:45.327Z,68.77
2019-01-23T11:33:11.364Z,72.17
2019-01-23T11:35:37.177Z,70.50
2019-01-23T11:38:02.981Z,66.83
2019-01-23T11:40:29.904Z,77.57
2019-01-23T11:42:55.965Z,75.43
2019-01-23T11:45:21.783Z,70.63
2019-01-23T11:47:47.592Z,81.77
2019-01-23T11:50:21.164Z,69.07
2019-01-23T11:52:43.149Z,66.27
2019-01-23T11:55:14.625Z,74.57
2019-01-23T11:57:40.432Z,72.60
2019-01-23T12:00:17.978Z,72.13
2019-01-23T12:02:43.795Z,74.23
2019-01-23T12:05:11.797Z,70.63
2019-01-23T12:07:37.635Z,77.00
2019-01-23T12:10:12.311Z,78.77
2019-01-23T12:12:43.040Z,76.83
2019-01-23T12:15:12.325Z,79.10
2019-01-23T12:17:40.877Z,72.17
2019-01-23T12:20:08.500Z,82.80
2019-01-23T12:22:34.307Z,91.40
2019-01-23T12:25:02.346Z,86.37
2019-01-23T12:27:28.176Z,78.93
2019-01-23T12:29:53.990Z,84.53
2019-01-23T12:32:19.825Z,85.03
2019-01-23T12:34:48.547Z,78.83
2019-01-23T12:37:17.273Z,82.57
2019-01-23T12:39:43.084Z,83.17
2019-01-23T12:42:08.952Z,84.57
2019-01-23T12:44:34.996Z,80.23
2019-01-23T12:47:03.718Z,84.37
2019-01-23T12:49:29.547Z,85.77
2019-01-23T12:51:55.390Z,86.57
2019-01-23T12:54:21.455Z,89.87
2019-01-23T12:56:47.284Z,86.47
2019-01-23T12:59:13.126Z,92.23
2019-01-23T13:01:42.215Z,81.50
2019-01-23T13:04:06.692Z,77.93
2019-01-23T13:06:35.684Z,83.70
2019-01-23T13:09:05.405Z,77.23
2019-01-23T13:11:33.100Z,78.33
2019-01-23T13:13:58.951Z,86.23
2019-01-23T13:16:27.216Z,81.63
2019-01-23T13:18:53.014Z,75.30
2019-01-23T13:21:18.855Z,83.60
2019-01-23T13:23:47.440Z,81.37
2019-01-23T13:26:13.259Z,86.97
2019-01-23T13:28:39.062Z,82.73
2019-01-23T13:31:04.927Z,87.43
2019-01-23T13:33:30.704Z,87.30
2019-01-23T13:35:56.502Z,94.23
2019-01-23T13:38:22.336Z,86.27
2019-01-23T13:40:50.371Z,82.70
2019-01-23T13:43:16.180Z,87.93
2019-01-23T13:45:42.006Z,76.57
2019-01-23T13:48:07.818Z,78.73
2019-01-23T13:50:33.622Z,81.13
2019-01-23T13:53:02.497Z,81.57
2019-01-23T13:55:28.312Z,82.63
2019-01-23T13:57:54.115Z,67.23
2019-01-23T14:00:37.123Z,72.13
2019-01-23T14:03:03.703Z,66.80
2019-01-23T14:05:29.517Z,70.50
2019-01-23T14:07:57.254Z,66.87
2019-01-23T14:10:23.063Z,69.67
2019-01-23T14:12:49.112Z,71.67
2019-01-23T14:15:27.656Z,72.03
2019-01-23T14:17:53.480Z,68.03
2019-01-23T14:20:19.260Z,67.47
2019-01-23T14:22:45.330Z,67.83
2019-01-23T14:25:13.547Z,68.27
2019-01-23T14:27:39.352Z,69.30
2019-01-23T14:30:08.993Z,71.77
2019-01-23T14:32:34.801Z,68.53
2019-01-23T14:35:00.673Z,71.70
2019-01-23T14:37:26.521Z,73.30
2019-01-23T14:39:55.241Z,67.10
2019-01-23T14:42:26.306Z,63.57
2019-01-23T14:44:52.820Z,67.00
2019-01-23T14:47:18.623Z,65.40
2019-01-23T14:49:44.451Z,72.47
2019-01-23T14:52:10.295Z,65.27
2019-01-23T14:54:36.139Z,62.00
2019-01-23T14:57:01.950Z,57.33
2019-01-23T14:59:27.783Z,58.77
2019-01-23T15:01:53.603Z,62.37
2019-01-23T15:04:19.402Z,59.87
2019-01-23T15:06:47.459Z,58.00
2019-01-23T15:09:13.263Z,62.30
2019-01-23T15:11:39.072Z,63.53
2019-01-23T15:14:05.002Z,65.80
2019-01-23T15:16:30.843Z,61.53
2019-01-23T15:18:56.699Z,58.63
2019-01-23T15:21:22.515Z,61.53
2019-01-23T15:23:48.407Z,64.03
2019-01-23T15:26:14.222Z,60.93
2019-01-23T15:28:40.044Z,62.30
2019-01-23T15:31:05.902Z,63.33
2019-01-23T15:33:31.710Z,60.63
2019-01-23T15:35:57.529Z,59.53
2019-01-23T15:38:23.335Z,62.20
2019-01-23T15:40:49.172Z,58.57
2019-01-23T15:43:15.182Z,60.60
2019-01-23T15:45:44.047Z,59.73
2019-01-23T15:48:09.860Z,58.53
2019-01-23T15:50:35.729Z,61.07
2019-01-23T15:53:09.128Z,54.43
2019-01-23T15:55:34.926Z,61.43
2019-01-23T15:58:00.760Z,58.47
2019-01-23T16:00:30.741Z,57.80
2019-01-23T16:02:59.352Z,58.70
2019-01-23T16:05:27.134Z,56.93
2019-01-23T16:07:52.920Z,60.63
2019-01-23T16:10:20.745Z,61.43
2019-01-23T16:12:46.655Z,56.53
2019-01-23T16:15:17.162Z,61.63
2019-01-23T16:17:43.085Z,68.50
2019-01-23T16:20:10.628Z,59.03
2019-01-23T16:22:36.439Z,67.10
2019-01-23T16:25:03.964Z,57.43
2019-01-23T16:27:29.815Z,62.40
2019-01-23T16:29:55.621Z,66.40
2019-01-23T16:32:23.346Z,69.50
2019-01-23T16:34:49.158Z,68.43
2019-01-23T16:37:14.971Z,64.60
2019-01-23T16:39:42.176Z,62.10
2019-01-23T16:42:09.891Z,62.23
2019-01-23T16:44:38.677Z,58.73
2019-01-23T16:47:04.513Z,68.70
2019-01-23T16:49:32.468Z,69.47
2019-01-23T16:51:58.275Z,62.70
2019-01-23T16:54:24.110Z,67.67
2019-01-23T16:56:52.555Z,73.03
2019-01-23T16:59:18.492Z,68.07
2019-01-23T17:01:44.259Z,65.83
2019-01-23T17:04:12.955Z,75.53
2019-01-23T17:06:39.074Z,74.37
2019-01-23T17:09:05.894Z,79.20
2019-01-23T17:11:36.648Z,76.17
2019-01-23T17:14:04.394Z,68.20
2019-01-23T17:16:30.381Z,72.83
2019-01-23T17:18:56.220Z,77.23
2019-01-23T17:21:23.920Z,73.17
2019-01-23T17:23:49.963Z,78.23
2019-01-23T17:26:15.771Z,76.17
2019-01-23T17:28:41.605Z,79.40
2019-01-23T17:31:07.535Z,79.27
2019-01-23T17:33:33.343Z,82.40
2019-01-23T17:35:59.479Z,73.67
2019-01-23T17:38:25.356Z,74.20
2019-01-23T17:40:51.203Z,84.73
2019-01-23T17:43:19.074Z,78.87
2019-01-23T17:45:44.894Z,84.67
2019-01-23T17:48:10.866Z,85.93
2019-01-23T17:50:36.690Z,80.20
2019-01-23T17:53:07.724Z,87.03
2019-01-23T17:55:35.830Z,96.03
2019-01-23T17:58:04.403Z,86.03
2019-01-23T18:00:32.131Z,83.20
2019-01-23T18:03:00.046Z,82.50
2019-01-23T18:05:26.148Z,88.63
2019-01-23T18:07:52.081Z,94.13
2019-01-23T18:10:17.933Z,96.80
2019-01-23T18:12:43.743Z,97.07
2019-01-23T18:15:18.507Z,84.93
2019-01-23T18:17:47.083Z,89.47
2019-01-23T18:20:16.056Z,94.70
2019-01-23T18:22:41.934Z,93.37
2019-01-23T18:25:08.750Z,89.77
2019-01-23T18:27:34.686Z,87.40
2019-01-23T18:30:01.473Z,99.97
2019-01-23T18:32:27.284Z,92.57
2019-01-23T18:35:15.244Z,92.43
2019-01-23T18:37:56.841Z,108.00
2019-01-23T18:40:38.277Z,98.40
2019-01-23T18:43:24.674Z,112.07
2019-01-23T18:46:11.132Z,108.10
2019-01-23T18:49:07.772Z,107.87
2019-01-23T18:51:40.420Z,104.57
2019-01-23T18:54:06.502Z,112.50
2019-01-23T18:56:32.511Z,104.63
2019-01-23T18:58:59.604Z,92.03
2019-01-23T19:01:27.339Z,95.03
2019-01-23T19:03:53.200Z,98.60
2019-01-23T19:06:19.021Z,107.40
2019-01-23T19:08:44.888Z,100.70
2019-01-23T19:11:12.705Z,106.97
2019-01-23T19:13:38.824Z,99.00
2019-01-23T19:16:04.634Z,99.20
2019-01-23T19:18:30.430Z,97.43
2019-01-23T19:20:56.263Z,98.67
2019-01-23T19:23:22.174Z,89.47
2019-01-23T19:25:47.967Z,92.73
2019-01-23T19:28:13.882Z,81.47
2019-01-23T19:30:39.680Z,77.83
2019-01-23T19:33:13.673Z,75.27
2019-01-23T19:35:39.819Z,81.53
2019-01-23T19:38:05.631Z,85.47
2019-01-23T19:40:34.554Z,86.17
2019-01-23T19:43:00.391Z,81.67
2019-01-23T19:45:26.199Z,84.73
2019-01-23T19:47:52.108Z,80.43
2019-01-23T19:50:18.047Z,82.23
2019-01-23T19:52:43.968Z,75.90
2019-01-23T19:55:14.476Z,77.67
2019-01-23T19:57:40.302Z,83.40
2019-01-23T20:00:13.342Z,80.57
2019-01-23T20:02:39.326Z,80.37
2019-01-23T20:05:09.024Z,85.37
2019-01-23T20:07:36.070Z,79.33
2019-01-23T20:10:04.584Z,80.30
2019-01-23T20:12:32.621Z,75.83
2019-01-23T20:14:58.535Z,81.13
2019-01-23T20:17:24.455Z,83.47
2019-01-23T20:19:52.917Z,76.53
2019-01-23T20:22:18.720Z,82.10
2019-01-23T20:24:46.526Z,84.87
2019-01-23T20:27:12.763Z,80.33
2019-01-23T20:29:38.584Z,86.20
2019-01-23T20:32:04.391Z,80.03
2019-01-23T20:34:32.532Z,82.97
2019-01-23T20:36:58.339Z,89.33
2019-01-23T20:39:24.134Z,84.97
2019-01-23T20:41:49.999Z,81.60
2019-01-23T20:44:16.022Z,83.80
2019-01-23T20:46:41.852Z,88.17
2019-01-23T20:49:09.639Z,81.67
2019-01-23T20:51:35.460Z,92.13
2019-01-23T20:54:01.277Z,93.83
2019-01-23T20:56:27.130Z,93.37
2019-01-23T20:58:52.986Z,88.93
2019-01-23T21:01:18.789Z,90.87
2019-01-23T21:03:44.890Z,89.37
2019-01-23T21:06:10.774Z,91.30
2019-01-23T21:08:36.592Z,92.80
2019-01-23T21:11:03.699Z,84.70
2019-01-23T21:13:29.837Z,85.70
2019-01-23T21:15:55.636Z,86.63
2019-01-23T21:18:21.469Z,95.83
2019-01-23T21:20:47.284Z,96.00
2019-01-23T21:23:13.092Z,91.40
2019-01-23T21:25:38.911Z,88.53
2019-01-23T21:28:05.956Z,90.23
2019-01-23T21:30:32.987Z,86.53
2019-01-23T21:33:01.635Z,87.67
2019-01-23T21:35:27.443Z,82.17
2019-01-23T21:36:49.118Z,86.08
2019-01-23T21:37:10.436Z,88.60
2019-01-23T21:37:31.359Z,87.42
2019-01-23T21:37:52.285Z,95.25
2019-01-23T21:38:13.200Z,94.67
2019-01-23T21:38:34.098Z,94.17
2019-01-23T21:38:55.017Z,95.77
2019-01-23T21:39:16.014Z,96.42
2019-01-23T21:39:36.911Z,94.62
2019-01-23T21:39:57.823Z,96.65
2019-01-23T21:40:21.451Z,98.42
2019-01-23T21:40:42.342Z,95.80
2019-01-23T21:41:03.286Z,95.83
2019-01-23T21:41:24.192Z,99.52
2019-01-23T21:41:45.096Z,103.32
2019-01-23T21:42:06.032Z,101.27
2019-01-23T21:42:26.946Z,97.30
2019-01-23T21:42:47.849Z,96.60
2019-01-23T21:43:08.744Z,94.40
2019-01-23T21:43:29.651Z,91.05
2019-01-23T21:43:50.553Z,89.25
2019-01-23T21:44:13.359Z,89.52
2019-01-23T21:44:34.260Z,90.77
2019-01-23T21:44:55.171Z,91.40
2019-01-23T21:45:18.608Z,89.67
2019-01-23T21:45:39.516Z,87.45
2019-01-23T21:46:00.448Z,87.10
2019-01-23T21:46:23.911Z,85.35
2019-01-23T21:46:44.817Z,87.62
2019-01-23T21:47:05.712Z,85.97
2019-01-23T21:47:26.607Z,86.60
2019-01-23T21:47:49.121Z,84.37
2019-01-23T21:48:10.071Z,85.67
2019-01-23T21:48:31.023Z,85.10
2019-01-23T21:48:52.027Z,84.35
2019-01-23T21:49:12.928Z,87.42
2019-01-23T21:49:33.850Z,87.88
2019-01-23T21:49:54.769Z,87.60
2019-01-23T21:50:20.820Z,89.47
2019-01-23T21:50:41.722Z,95.55
2019-01-23T21:51:02.622Z,86.40
2019-01-23T21:51:23.522Z,91.17
2019-01-23T21:51:44.459Z,94.60
2019-01-23T21:52:05.359Z,92.00
2019-01-23T21:52:28.883Z,92.10
2019-01-23T21:52:49.877Z,93.97
2019-01-23T21:53:10.768Z,94.25
2019-01-23T21:53:31.671Z,91.63
2019-01-23T21:53:52.680Z,91.20
2019-01-23T21:54:13.637Z,91.90
2019-01-23T21:54:34.541Z,95.07
2019-01-23T21:54:58.249Z,92.90
2019-01-23T21:55:22.078Z,93.65
2019-01-23T21:55:42.982Z,91.92
2019-01-23T21:56:03.923Z,89.87
2019-01-23T21:56:24.816Z,88.85
2019-01-23T21:56:45.736Z,87.67
2019-01-23T21:57:06.663Z,89.03
2019-01-23T21:57:29.546Z,90.70
2019-01-23T21:57:50.960Z,90.55
2019-01-23T21:58:11.862Z,90.05
2019-01-23T21:58:32.782Z,94.37
2019-01-23T21:58:56.309Z,92.40
2019-01-23T21:59:17.203Z,90.40
2019-01-23T21:59:38.153Z,93.72
2019-01-23T21:59:59.148Z,92.53
2019-01-23T22:00:23.361Z,94.87
2019-01-23T22:00:44.549Z,93.78
2019-01-23T22:01:10.219Z,95.65
2019-01-23T22:01:31.182Z,94.50
2019-01-23T22:01:52.072Z,93.12
2019-01-23T22:02:13.127Z,97.15
2019-01-23T22:02:35.276Z,94.30
2019-01-23T22:03:01.503Z,97.00
2019-01-23T22:03:25.023Z,97.22
2019-01-23T22:03:49.420Z,96.35
2019-01-23T22:04:10.510Z,96.80
2019-01-23T22:04:31.395Z,94.52
2019-01-23T22:04:52.301Z,93.58
2019-01-23T22:05:13.316Z,92.33
2019-01-23T22:05:34.224Z,91.65
2019-01-23T22:05:55.127Z,97.10
2019-01-23T22:06:18.821Z,93.10
2019-01-23T22:06:39.727Z,93.55
2019-01-23T22:07:00.625Z,97.40
2019-01-23T22:07:21.527Z,95.10
2019-01-23T22:07:42.475Z,98.00
2019-01-23T22:08:03.377Z,96.85
2019-01-23T22:08:24.335Z,96.82
2019-01-23T22:08:45.250Z,96.67
2019-01-23T22:09:06.138Z,93.15
2019-01-23T22:09:27.044Z,93.15
2019-01-23T22:10:10.658Z,92.40
2019-01-23T22:10:31.556Z,93.00
2019-01-23T22:10:52.459Z,92.42
2019-01-23T22:11:13.444Z,95.65
2019-01-23T22:11:34.347Z,94.25
2019-01-23T22:11:55.236Z,95.17
2019-01-23T22:12:16.138Z,92.70
2019-01-23T22:12:37.061Z,91.53
2019-01-23T22:12:57.994Z,92.22
2019-01-23T22:13:18.902Z,90.90
2019-01-23T22:13:39.800Z,92.40
2019-01-23T22:14:00.725Z,92.35
2019-01-23T22:14:23.536Z,90.60
2019-01-23T22:14:44.443Z,93.50
2019-01-23T22:15:12.020Z,87.45
2019-01-23T22:15:33.030Z,89.15
2019-01-23T22:15:54.029Z,89.87
2019-01-23T22:16:14.924Z,93.87
2019-01-23T22:16:38.734Z,95.30
2019-01-23T22:17:04.572Z,92.37
2019-01-23T22:17:25.457Z,92.10
2019-01-23T22:17:46.378Z,93.25
2019-01-23T22:18:07.289Z,92.22
2019-01-23T22:18:28.200Z,92.45
2019-01-23T22:18:49.116Z,97.85
2019-01-23T22:19:10.018Z,96.60
2019-01-23T22:19:30.952Z,97.08
2019-01-23T22:19:51.861Z,101.38
2019-01-23T22:20:15.328Z,98.75
2019-01-23T22:20:36.227Z,97.47
2019-01-23T22:20:57.129Z,100.42
2019-01-23T22:21:18.037Z,100.87
2019-01-23T22:21:38.945Z,99.67
2019-01-23T22:22:03.661Z,103.05
2019-01-23T22:22:24.555Z,101.07
2019-01-23T22:22:47.820Z,94.25
2019-01-23T22:23:08.734Z,92.00
2019-01-23T22:23:29.743Z,90.80
2019-01-23T22:23:50.615Z,90.32
2019-01-23T22:24:11.518Z,91.12
2019-01-23T22:24:32.414Z,94.83
2019-01-23T22:24:53.322Z,95.95
2019-01-23T22:25:17.130Z,97.90
2019-01-23T22:25:38.038Z,100.02
2019-01-23T22:25:59.052Z,98.60
2019-01-23T22:26:19.951Z,95.47
2019-01-23T22:26:43.518Z,97.37
2019-01-23T22:27:04.414Z,98.03
2019-01-23T22:27:25.315Z,98.47
2019-01-23T22:27:46.251Z,99.13
2019-01-23T22:28:09.086Z,98.35
2019-01-23T22:28:30.090Z,100.78
2019-01-23T22:28:53.873Z,103.65
2019-01-23T22:29:14.777Z,101.22
2019-01-23T22:29:35.676Z,99.67
2019-01-23T22:29:56.570Z,96.17
2019-01-23T22:30:31.988Z,99.62
2019-01-23T22:30:52.902Z,104.58
2019-01-23T22:31:13.814Z,103.70
2019-01-23T22:31:34.716Z,101.78
2019-01-23T22:31:55.609Z,102.35
2019-01-23T22:32:16.535Z,102.02
2019-01-23T22:32:37.425Z,100.67
2019-01-23T22:33:06.663Z,100.87
2019-01-23T22:33:27.513Z,107.40
2019-01-23T22:33:48.445Z,108.57
2019-01-23T22:34:09.359Z,109.70
2019-01-23T22:34:30.379Z,107.35
2019-01-23T22:34:51.282Z,107.37
2019-01-23T22:35:14.192Z,103.80
2019-01-23T22:35:35.096Z,105.92
2019-01-23T22:35:58.854Z,103.47
2019-01-23T22:36:19.819Z,105.00
2019-01-23T22:36:40.729Z,108.97
2019-01-23T22:37:01.638Z,107.60
2019-01-23T22:37:22.640Z,103.20
2019-01-23T22:37:44.980Z,103.07
2019-01-23T22:38:12.101Z,107.72
2019-01-23T22:38:33.016Z,102.70
2019-01-23T22:38:53.954Z,102.87
2019-01-23T22:39:14.842Z,106.50
2019-01-23T22:39:35.743Z,108.83
2019-01-23T22:39:56.641Z,104.92
2019-01-23T22:40:20.754Z,103.20
2019-01-23T22:40:41.672Z,107.63
2019-01-23T22:41:02.715Z,107.55
2019-01-23T22:41:23.634Z,104.53
2019-01-23T22:41:44.547Z,100.97
2019-01-23T22:45:13.535Z,94.10
2019-01-23T22:48:14.487Z,97.33
2019-01-23T22:51:15.402Z,97.67
2019-01-23T22:54:18.432Z,97.53
2019-01-23T22:57:19.348Z,97.63
2019-01-23T23:00:37.398Z,100.53
2019-01-23T23:03:41.785Z,94.97
2019-01-23T23:06:42.716Z,100.47
2019-01-23T23:09:43.668Z,99.80
2019-01-23T23:12:48.728Z,97.53
2019-01-23T23:15:49.660Z,97.43
2019-01-23T23:18:50.581Z,103.70
2019-01-23T23:21:51.606Z,95.53
2019-01-23T23:24:55.276Z,99.47
2019-01-23T23:27:58.429Z,95.07
2019-01-23T23:30:59.395Z,101.17
2019-01-23T23:34:09.786Z,95.23
2019-01-23T23:37:09.055Z,95.80
2019-01-23T23:40:11.699Z,93.37
2019-01-23T23:43:12.660Z,95.67
2019-01-23T23:46:13.716Z,95.50
2019-01-23T23:49:14.872Z,97.17
2019-01-23T23:52:15.806Z,98.67
2019-01-23T23:55:16.786Z,97.20
2019-01-23T23:58:19.607Z,97.97
